Time;durP1;ratioP1;P1;durP2;ratioP2;P2;SDS_P1;SDS_P2;PMS_P1;PMS_P2;Temp;Humidity;BMP_temperature;BMP_pressure;BME280_temperature;BME280_humidity;BME280_pressure;Samples;Min_cycle;Max_cycle;Signal;HPM_P1;HPM_P2
2023/07/11 00:00:39;;;;;;;6.40;4.82;;;;;;;30.60;45.95;99048.25;2080041;28;20048;-49
2023/07/11 00:01:40;;;;;;;6.57;4.88;;;;;;;30.58;45.83;99045.78;2081521;28;20042;-48
2023/07/11 00:02:42;;;;;;;7.68;5.53;;;;;;;30.59;46.16;99049.34;2080608;28;20549;-49
2023/07/11 00:03:43;;;;;;;8.27;5.35;;;;;;;30.59;45.99;99043.84;2079968;28;20049;-49
2023/07/11 00:04:44;;;;;;;6.93;5.50;;;;;;;30.59;46.10;99049.34;2079226;28;20500;-49
2023/07/11 00:05:57;;;;;;;7.63;5.22;;;;;;;30.56;45.82;99044.41;2079417;28;20135;-49
2023/07/11 00:06:59;;;;;;;7.35;5.13;;;;;;;30.58;46.12;99044.97;2079066;28;20498;-48
2023/07/11 00:07:59;;;;;;;5.18;4.63;;;;;;;30.56;45.80;99044.41;2081512;28;20610;-49
2023/07/11 00:09:03;;;;;;;7.43;6.38;;;;;;;30.58;45.87;99042.22;2078648;28;20045;-49
2023/07/11 00:10:04;;;;;;;6.03;5.43;;;;;;;30.57;46.14;99040.59;2080164;28;20140;-49
2023/07/11 00:11:09;;;;;;;8.52;5.72;;;;;;;30.57;45.82;99040.59;2081977;28;20075;-48
2023/07/11 00:12:09;;;;;;;8.15;5.93;;;;;;;30.56;46.26;99038.94;2079490;28;20084;-49
2023/07/11 00:13:11;;;;;;;7.95;6.07;;;;;;;30.56;46.20;99044.41;2078198;28;20128;-49
2023/07/11 00:14:12;;;;;;;8.20;5.32;;;;;;;30.56;45.76;99039.75;2079901;28;20128;-49
2023/07/11 00:15:16;;;;;;;7.65;5.75;;;;;;;30.58;46.05;99047.69;2080402;28;20573;-49
2023/07/11 00:16:18;;;;;;;10.00;5.93;;;;;;;30.57;46.14;99040.59;2082207;28;20098;-49
2023/07/11 00:17:20;;;;;;;5.70;4.88;;;;;;;30.57;45.91;99043.34;2081806;28;20299;-48
2023/07/11 00:18:21;;;;;;;7.53;5.32;;;;;;;30.56;46.13;99038.94;2078063;28;20049;-49
2023/07/11 00:19:22;;;;;;;8.30;5.88;;;;;;;30.56;46.33;99049.88;2081694;28;20461;-49
2023/07/11 00:20:23;;;;;;;5.53;4.88;;;;;;;30.56;45.76;99041.66;2078651;28;20374;-48
2023/07/11 00:21:25;;;;;;;8.15;6.10;;;;;;;30.56;46.18;99049.88;2080829;28;20057;-54
2023/07/11 00:22:29;;;;;;;7.07;5.97;;;;;;;30.55;46.32;99037.31;2081871;28;20557;-49
2023/07/11 00:23:31;;;;;;;7.43;5.15;;;;;;;30.54;46.38;99044.69;2079366;28;20064;-48
2023/07/11 00:24:33;;;;;;;8.32;5.88;;;;;;;30.55;46.08;99043.59;2078538;28;20086;-56
2023/07/11 00:25:35;;;;;;;12.70;6.43;;;;;;;30.54;46.07;99041.16;2080563;28;20850;-51
2023/07/11 00:26:36;;;;;;;7.05;5.57;;;;;;;30.55;46.41;99051.00;2080214;28;20055;-50
2023/07/11 00:27:38;;;;;;;8.05;5.68;;;;;;;30.54;46.01;99038.41;2080274;28;20045;-55
2023/07/11 00:28:39;;;;;;;6.68;4.80;;;;;;;30.55;46.21;99045.50;2079819;28;20132;-48
2023/07/11 00:29:40;;;;;;;8.13;5.05;;;;;;;30.54;46.49;99041.16;2080577;28;20391;-49
2023/07/11 00:30:41;;;;;;;5.05;4.55;;;;;;;30.54;46.36;99043.88;2080721;28;20143;-49
2023/07/11 00:31:43;;;;;;;6.85;5.07;;;;;;;30.54;45.88;99038.41;2079738;28;20269;-49
2023/07/11 00:32:44;;;;;;;9.85;6.65;;;;;;;30.53;46.43;99037.56;2080015;28;20091;-49
2023/07/11 00:33:45;;;;;;;7.53;4.90;;;;;;;30.53;46.15;99044.97;2077530;28;20174;-58
2023/07/11 00:34:46;;;;;;;7.38;5.57;;;;;;;30.52;45.91;99038.66;2078214;28;20057;-52
2023/07/11 00:35:52;;;;;;;8.13;6.55;;;;;;;30.53;45.79;99039.47;2082150;28;20053;-59
2023/07/11 00:36:52;;;;;;;8.13;5.30;;;;;;;30.52;46.34;99044.16;2081007;28;20045;-53
2023/07/11 00:37:54;;;;;;;10.48;6.82;;;;;;;30.52;46.05;99040.59;2078748;28;20487;-49
2023/07/11 00:38:55;;;;;;;5.85;4.75;;;;;;;30.52;46.27;99035.94;2079035;28;20562;-57
2023/07/11 00:39:58;;;;;;;6.00;5.03;;;;;;;30.52;45.93;99041.41;2080100;28;20441;-50
2023/07/11 00:40:58;;;;;;;7.68;5.68;;;;;;;30.50;45.99;99033.44;2078398;28;20083;-49
2023/07/11 00:42:00;;;;;;;7.75;5.30;;;;;;;30.52;46.48;99037.84;2078319;28;20053;-50
2023/07/11 00:43:01;;;;;;;7.40;5.78;;;;;;;30.52;46.02;99035.13;2081797;28;20128;-49
2023/07/11 00:44:03;;;;;;;8.82;5.38;;;;;;;30.52;46.37;99026.91;2079194;28;20045;-49
2023/07/11 00:45:05;;;;;;;7.97;5.25;;;;;;;30.50;46.36;99027.97;2079394;28;20041;-49
2023/07/11 00:46:12;;;;;;;8.98;6.03;;;;;;;30.52;45.63;99032.38;2078410;28;20615;-50
2023/07/11 00:47:14;;;;;;;8.80;5.43;;;;;;;30.49;46.29;99026.34;2081117;28;20046;-52
2023/07/11 00:48:16;;;;;;;8.00;5.38;;;;;;;30.51;46.10;99026.09;2079308;28;20068;-50
2023/07/11 00:49:20;;;;;;;10.48;5.95;;;;;;;30.52;45.85;99032.38;2079967;28;20059;-50
2023/07/11 00:50:21;;;;;;;6.75;5.05;;;;;;;30.50;46.16;99029.91;2076205;28;20890;-51
2023/07/11 00:51:28;;;;;;;7.70;5.20;;;;;;;30.50;46.23;99035.38;2079849;28;20279;-50
2023/07/11 00:52:31;;;;;;;7.25;5.63;;;;;;;30.50;45.97;99027.16;2078740;28;20353;-50
2023/07/11 00:53:33;;;;;;;8.90;6.03;;;;;;;30.49;46.01;99031.00;2080532;28;20153;-50
2023/07/11 00:54:37;;;;;;;7.72;5.95;;;;;;;30.50;46.00;99036.19;2080926;28;20045;-53
2023/07/11 00:55:40;;;;;;;7.35;6.25;;;;;;;30.49;46.38;99033.75;2080476;28;20498;-50
2023/07/11 00:56:46;;;;;;;8.35;5.80;;;;;;;30.48;45.79;99032.94;2079864;28;20053;-51
2023/07/11 00:57:47;;;;;;;6.65;5.45;;;;;;;30.49;46.26;99039.22;2081258;28;20152;-50
2023/07/11 00:58:49;;;;;;;6.68;5.15;;;;;;;30.48;46.16;99030.19;2079538;28;20056;-52
2023/07/11 00:59:51;;;;;;;7.85;5.68;;;;;;;30.48;46.17;99026.63;2081179;28;20056;-50
2023/07/11 01:00:52;;;;;;;7.05;4.95;;;;;;;30.49;46.18;99033.75;2080460;28;20314;-49
2023/07/11 01:02:01;;;;;;;8.50;6.65;;;;;;;30.49;46.17;99033.75;2083192;28;20052;-54
2023/07/11 01:03:02;;;;;;;6.60;5.80;;;;;;;30.47;45.91;99036.75;2076472;28;20155;-50
2023/07/11 01:04:05;;;;;;;5.03;4.50;;;;;;;30.47;45.95;99035.91;2079302;28;20056;-50
2023/07/11 01:05:07;;;;;;;7.07;5.20;;;;;;;30.46;46.25;99029.63;2078666;28;20052;-53
2023/07/11 01:06:12;;;;;;;9.35;5.82;;;;;;;30.48;45.82;99026.63;2082122;28;20079;-50
2023/07/11 01:07:17;;;;;;;6.10;5.22;;;;;;;30.47;46.04;99031.25;2070230;28;20550;-49
2023/07/11 01:08:18;;;;;;;8.00;5.65;;;;;;;30.47;45.99;99031.25;2079338;28;20049;-52
2023/07/11 01:09:19;;;;;;;9.07;6.75;;;;;;;30.46;46.10;99026.91;2080814;28;20140;-52
2023/07/11 01:10:21;;;;;;;8.93;5.75;;;;;;;30.47;46.22;99025.78;2078230;28;20538;-55
2023/07/11 01:11:27;;;;;;;8.25;5.93;;;;;;;30.47;46.18;99024.97;2079831;28;20411;-50
2023/07/11 01:12:29;;;;;;;7.43;5.38;;;;;;;30.45;46.16;99017.06;2080019;28;20490;-49
2023/07/11 01:13:30;;;;;;;6.53;4.75;;;;;;;30.45;46.38;99017.06;2079264;28;20373;-48
2023/07/11 01:14:31;;;;;;;7.15;5.15;;;;;;;30.46;46.18;99015.94;2078474;28;20056;-52
2023/07/11 01:15:33;;;;;;;6.45;5.55;;;;;;;30.46;46.00;99018.69;2079045;28;20049;-53
2023/07/11 01:16:42;;;;;;;7.35;4.97;;;;;;;30.45;46.14;99010.72;2079604;28;20060;-53
2023/07/11 01:17:44;;;;;;;7.43;6.60;;;;;;;30.44;46.10;99015.38;2078457;28;20206;-50
2023/07/11 01:18:45;;;;;;;6.95;5.20;;;;;;;30.44;46.43;99012.66;2079096;28;20472;-53
2023/07/11 01:19:46;;;;;;;10.18;6.75;;;;;;;30.44;46.34;99018.13;2080069;28;20076;-50
2023/07/11 01:20:48;;;;;;;7.22;5.70;;;;;;;30.45;46.25;99013.47;2080697;28;20529;-50
2023/07/11 01:21:50;;;;;;;6.10;5.00;;;;;;;30.46;46.12;99015.13;2080454;28;20056;-48
2023/07/11 01:22:52;;;;;;;9.95;5.72;;;;;;;30.45;46.28;99024.41;2080928;28;20056;-44
2023/07/11 01:23:53;;;;;;;7.05;5.28;;;;;;;30.43;46.41;99018.41;2076437;28;20144;-50
2023/07/11 01:24:56;;;;;;;8.02;5.35;;;;;;;30.46;45.88;99020.59;2078793;28;20411;-49
2023/07/11 01:26:00;;;;;;;6.45;5.38;;;;;;;30.43;46.07;99013.75;2078241;28;20135;-52
2023/07/11 01:27:02;;;;;;;6.60;5.18;;;;;;;30.43;46.53;99019.22;2080280;28;20055;-51
2023/07/11 01:28:03;;;;;;;8.30;5.00;;;;;;;30.43;46.34;99019.22;2081495;28;20049;-45
2023/07/11 01:29:05;;;;;;;8.52;5.15;;;;;;;30.43;46.25;99012.94;2079718;28;20414;-49
2023/07/11 01:30:08;;;;;;;8.55;5.63;;;;;;;30.43;46.18;99011.03;2080389;28;20060;-52
2023/07/11 01:31:10;;;;;;;7.10;5.35;;;;;;;30.42;46.39;99012.13;2078866;28;20055;-53
2023/07/11 01:32:11;;;;;;;6.72;5.82;;;;;;;30.41;46.56;99010.47;2079484;28;20053;-54
2023/07/11 01:33:12;;;;;;;8.00;5.10;;;;;;;30.42;46.25;99005.81;2077944;28;20058;-52
2023/07/11 01:34:13;;;;;;;7.97;6.05;;;;;;;30.42;46.06;99009.38;2082077;28;20072;-49
2023/07/11 01:35:15;;;;;;;6.93;5.25;;;;;;;30.41;45.98;99007.72;2079958;28;20049;-49
2023/07/11 01:36:16;;;;;;;8.02;4.97;;;;;;;30.42;45.97;99003.06;2081305;28;20053;-48
2023/07/11 01:37:19;;;;;;;6.68;5.80;;;;;;;30.41;46.26;99001.44;2078729;28;20060;-47
2023/07/11 01:38:21;;;;;;;9.43;5.93;;;;;;;30.41;46.04;99004.19;2078270;28;20053;-52
2023/07/11 01:39:23;;;;;;;7.15;5.75;;;;;;;30.41;46.48;98998.69;2078643;28;20436;-49
2023/07/11 01:40:24;;;;;;;8.18;5.28;;;;;;;30.41;46.45;99001.44;2079492;28;20052;-51
2023/07/11 01:41:25;;;;;;;6.80;5.30;;;;;;;30.40;46.16;98995.16;2078826;28;20564;-51
2023/07/11 01:42:27;;;;;;;5.53;4.70;;;;;;;30.41;46.08;98999.50;2080645;28;20480;-47
2023/07/11 01:43:28;;;;;;;6.70;5.20;;;;;;;30.40;46.58;98994.34;2077918;28;20143;-50
2023/07/11 01:44:30;;;;;;;7.40;5.68;;;;;;;30.40;46.29;99003.34;2077563;28;20053;-52
2023/07/11 01:45:32;;;;;;;7.70;5.90;;;;;;;30.39;46.58;98988.00;2079098;28;20140;-50
2023/07/11 01:46:32;;;;;;;9.05;5.97;;;;;;;30.40;46.17;98992.41;2080881;28;20098;-52
2023/07/11 01:47:34;;;;;;;6.88;5.95;;;;;;;30.40;46.26;98994.34;2081210;28;20094;-52
2023/07/11 01:48:35;;;;;;;6.47;5.55;;;;;;;30.40;46.20;98991.59;2079670;28;20565;-51
2023/07/11 01:49:36;;;;;;;6.72;5.05;;;;;;;30.40;46.31;98995.16;2076674;28;20249;-50
2023/07/11 01:50:37;;;;;;;6.38;5.22;;;;;;;30.39;46.48;98990.75;2082399;28;20544;-51
2023/07/11 01:51:39;;;;;;;7.65;6.00;;;;;;;30.39;46.16;98996.22;2078712;28;20046;-50
2023/07/11 01:52:41;;;;;;;5.85;5.22;;;;;;;30.38;45.95;98991.84;2082083;28;20680;-48
2023/07/11 01:53:43;;;;;;;8.65;6.18;;;;;;;30.39;46.44;98996.22;2079425;28;20423;-49
2023/07/11 01:54:44;;;;;;;8.35;5.25;;;;;;;30.38;46.15;98994.59;2081519;28;20442;-51
2023/07/11 01:55:55;;;;;;;8.75;5.57;;;;;;;30.39;45.78;98995.41;2078823;28;20056;-49
2023/07/11 01:56:56;;;;;;;6.07;5.35;;;;;;;30.37;46.07;98992.97;2081588;28;20045;-53
2023/07/11 01:57:57;;;;;;;10.35;6.13;;;;;;;30.38;46.10;98988.31;2080464;28;20064;-49
2023/07/11 01:58:58;;;;;;;6.40;5.40;;;;;;;30.38;46.09;98991.84;2083777;28;20463;-48
2023/07/11 02:00:00;;;;;;;7.18;5.97;;;;;;;30.39;46.13;98996.22;2080776;28;20049;-51
2023/07/11 02:01:01;;;;;;;7.22;5.50;;;;;;;30.38;46.11;98983.66;2081858;28;20471;-51
2023/07/11 02:02:02;;;;;;;10.27;6.00;;;;;;;30.39;46.03;98989.94;2082881;28;20045;-52
2023/07/11 02:03:04;;;;;;;8.27;5.60;;;;;;;30.38;46.07;98991.84;2080330;28;20038;-48
2023/07/11 02:04:04;;;;;;;8.02;5.75;;;;;;;30.39;45.75;98990.75;2078889;28;20045;-52
2023/07/11 02:05:07;;;;;;;7.25;5.78;;;;;;;30.38;46.10;98994.59;2080671;28;20114;-47
2023/07/11 02:06:07;;;;;;;6.03;5.38;;;;;;;30.38;45.87;98989.13;2081094;28;20049;-51
2023/07/11 02:07:11;;;;;;;7.78;5.60;;;;;;;30.38;45.89;98993.78;2079031;28;20049;-52
2023/07/11 02:08:13;;;;;;;7.00;6.30;;;;;;;30.38;46.15;98991.84;2083327;28;20076;-50
2023/07/11 02:09:15;;;;;;;6.75;5.35;;;;;;;30.37;46.21;98992.97;2076920;28;20065;-51
2023/07/11 02:10:16;;;;;;;7.72;5.18;;;;;;;30.37;46.08;98984.75;2082067;28;20106;-49
2023/07/11 02:11:17;;;;;;;6.75;5.78;;;;;;;30.37;46.03;98994.84;2078259;28;20197;-52
2023/07/11 02:12:18;;;;;;;7.60;6.43;;;;;;;30.36;46.16;98994.03;2082051;28;20049;-52
2023/07/11 02:13:20;;;;;;;7.25;5.25;;;;;;;30.36;45.94;98994.03;2081686;28;20063;-50
2023/07/11 02:14:21;;;;;;;8.57;5.50;;;;;;;30.37;46.24;98992.97;2082382;28;22040;-47
2023/07/11 02:15:22;;;;;;;8.45;5.72;;;;;;;30.37;46.35;98995.69;2081457;28;20459;-48
2023/07/11 02:16:23;;;;;;;7.95;5.80;;;;;;;30.37;45.96;98992.97;2083427;28;20136;-51
2023/07/11 02:17:25;;;;;;;8.95;6.15;;;;;;;30.36;45.95;98987.75;2079838;28;20499;-51
2023/07/11 02:18:26;;;;;;;7.25;5.35;;;;;;;30.36;46.03;98991.31;2080988;28;20419;-48
2023/07/11 02:19:27;;;;;;;7.78;5.35;;;;;;;30.36;46.29;98985.00;2078668;28;20045;-52
2023/07/11 02:20:28;;;;;;;8.65;6.10;;;;;;;30.35;46.36;98984.19;2081392;28;20097;-49
2023/07/11 02:21:30;;;;;;;6.80;5.70;;;;;;;30.36;46.17;98991.31;2081338;28;20049;-50
2023/07/11 02:22:31;;;;;;;6.05;5.45;;;;;;;30.34;46.42;98977.09;2081443;28;20559;-49
2023/07/11 02:23:34;;;;;;;7.30;5.13;;;;;;;30.35;46.26;98977.91;2079347;28;20107;-50
2023/07/11 02:24:34;;;;;;;6.35;4.93;;;;;;;30.35;46.29;98977.91;2084329;28;20127;-51
2023/07/11 02:25:36;;;;;;;8.57;6.78;;;;;;;30.34;46.30;98971.63;2082283;28;20051;-52
2023/07/11 02:26:37;;;;;;;7.32;5.40;;;;;;;30.34;46.10;98977.09;2081509;28;20045;-50
2023/07/11 02:27:39;;;;;;;6.22;5.15;;;;;;;30.34;46.51;98974.34;2079733;28;20809;-47
2023/07/11 02:28:39;;;;;;;8.10;5.07;;;;;;;30.34;46.40;98974.34;2080594;28;20072;-50
2023/07/11 02:29:41;;;;;;;6.05;5.38;;;;;;;30.34;46.27;98974.34;2078723;28;20053;-50
2023/07/11 02:30:42;;;;;;;8.18;5.45;;;;;;;30.35;46.40;98978.72;2082907;28;20094;-52
2023/07/11 02:31:44;;;;;;;7.32;5.68;;;;;;;30.34;46.12;98970.78;2079237;28;20045;-48
2023/07/11 02:32:45;;;;;;;7.13;5.15;;;;;;;30.34;46.37;98968.03;2082568;28;20045;-60
2023/07/11 02:33:48;;;;;;;8.50;6.35;;;;;;;30.34;46.13;98974.34;2079520;28;20091;-52
2023/07/11 02:34:48;;;;;;;7.38;5.43;;;;;;;30.33;46.38;98969.97;2080638;28;20053;-49
2023/07/11 02:35:50;;;;;;;5.82;5.22;;;;;;;30.34;46.26;98966.16;2078582;28;20368;-48
2023/07/11 02:36:51;;;;;;;7.40;5.70;;;;;;;30.34;46.23;98974.34;2081259;28;20068;-50
2023/07/11 02:37:51;;;;;;;8.15;5.18;;;;;;;30.33;46.46;98969.16;2081960;28;20040;-52
2023/07/11 02:38:55;;;;;;;7.68;5.13;;;;;;;30.32;46.55;98968.31;2081978;28;20294;-49
2023/07/11 02:39:55;;;;;;;7.50;5.88;;;;;;;30.33;46.13;98966.41;2080673;28;20123;-54
2023/07/11 02:40:57;;;;;;;8.05;5.65;;;;;;;30.33;46.40;98969.16;2080489;28;20235;-52
2023/07/11 02:41:58;;;;;;;9.45;5.88;;;;;;;30.32;46.33;98973.81;2082346;28;20049;-50
2023/07/11 02:42:59;;;;;;;6.90;5.53;;;;;;;30.32;46.54;98970.25;2073639;28;20099;-50
2023/07/11 02:44:00;;;;;;;6.07;5.15;;;;;;;30.32;46.24;98973.81;2080874;28;20059;-53
2023/07/11 02:45:02;;;;;;;6.60;5.75;;;;;;;30.33;46.61;98974.63;2080391;28;20094;-49
2023/07/11 02:46:03;;;;;;;6.38;5.78;;;;;;;30.31;46.21;98977.59;2080097;28;20134;-52
2023/07/11 02:47:05;;;;;;;6.85;5.30;;;;;;;30.32;46.43;98972.97;2082185;28;20107;-51
2023/07/11 02:48:06;;;;;;;6.78;5.50;;;;;;;30.32;46.17;98972.97;2082021;28;20132;-52
2023/07/11 02:49:08;;;;;;;7.53;5.35;;;;;;;30.31;46.35;98971.31;2080237;28;20049;-47
2023/07/11 02:50:10;;;;;;;7.68;5.22;;;;;;;30.31;46.62;98969.41;2078667;28;20045;-48
2023/07/11 02:51:12;;;;;;;8.38;5.95;;;;;;;30.30;46.01;98970.50;2078575;28;20438;-49
2023/07/11 02:52:12;;;;;;;6.82;5.82;;;;;;;30.29;46.31;98968.88;2081873;28;20065;-50
2023/07/11 02:53:14;;;;;;;7.35;5.35;;;;;;;30.30;46.57;98970.50;2078608;28;20435;-50
2023/07/11 02:54:16;;;;;;;6.38;5.75;;;;;;;30.31;46.56;98976.78;2082659;28;20080;-52
2023/07/11 02:55:17;;;;;;;7.70;5.70;;;;;;;30.30;46.42;98969.69;2081083;28;20049;-48
2023/07/11 02:56:20;;;;;;;9.30;6.68;;;;;;;30.30;46.37;98973.25;2083012;28;20057;-51
2023/07/11 02:57:20;;;;;;;9.27;5.65;;;;;;;30.28;46.69;98972.69;2079561;28;20053;-51
2023/07/11 02:58:22;;;;;;;6.75;5.63;;;;;;;30.28;46.49;98968.06;2082406;28;20677;-49
2023/07/11 02:59:23;;;;;;;8.23;5.38;;;;;;;30.28;46.62;98978.16;2078592;28;20135;-52
2023/07/11 03:00:24;;;;;;;6.93;5.20;;;;;;;30.28;46.63;98972.69;2079523;28;20056;-51
2023/07/11 03:01:25;;;;;;;7.57;5.05;;;;;;;30.28;46.52;98979.00;2079244;28;20095;-49
2023/07/11 03:02:27;;;;;;;7.82;5.32;;;;;;;30.28;46.29;98979.00;2083806;28;20057;-47
2023/07/11 03:03:27;;;;;;;5.65;4.97;;;;;;;30.28;46.70;98972.69;2077697;28;20045;-51
2023/07/11 03:04:30;;;;;;;7.30;5.30;;;;;;;30.27;46.83;98974.59;2080426;28;21064;-49
2023/07/11 03:05:31;;;;;;;7.50;5.20;;;;;;;30.27;46.66;98973.78;2078901;28;20772;-50
2023/07/11 03:06:32;;;;;;;7.60;6.18;;;;;;;30.27;46.50;98971.88;2081714;28;20091;-52
2023/07/11 03:07:33;;;;;;;5.72;5.03;;;;;;;30.27;46.74;98977.34;2080035;28;20110;-53
2023/07/11 03:08:34;;;;;;;7.32;5.85;;;;;;;30.25;46.50;98970.50;2079105;28;20518;-47
2023/07/11 03:09:38;;;;;;;6.53;5.03;;;;;;;30.25;46.30;98971.31;2080255;28;20216;-51
2023/07/11 03:10:39;;;;;;;7.80;5.30;;;;;;;30.26;46.31;98974.91;2078597;28;20040;-52
2023/07/11 03:11:41;;;;;;;6.53;5.50;;;;;;;30.25;46.80;98970.50;2078168;28;20140;-46
2023/07/11 03:12:42;;;;;;;7.70;5.78;;;;;;;30.25;46.86;98976.78;2082141;28;20132;-50
2023/07/11 03:13:44;;;;;;;7.18;5.18;;;;;;;30.25;46.26;98970.50;2081202;28;20517;-48
2023/07/11 03:14:47;;;;;;;7.10;5.55;;;;;;;30.25;46.57;98979.53;2081869;28;20052;-58
2023/07/11 03:15:49;;;;;;;6.43;4.78;;;;;;;30.25;46.73;98973.22;2081257;28;20045;-49
2023/07/11 03:16:50;;;;;;;6.97;6.05;;;;;;;30.26;46.72;98975.72;2081051;28;20966;-52
2023/07/11 03:17:51;;;;;;;9.15;5.65;;;;;;;30.26;46.61;98981.19;2080837;28;20450;-51
2023/07/11 03:18:52;;;;;;;6.80;4.70;;;;;;;30.25;46.14;98978.72;2081413;28;20456;-49
2023/07/11 03:19:54;;;;;;;6.18;5.57;;;;;;;30.24;46.52;98972.41;2079790;28;20060;-50
2023/07/11 03:20:57;;;;;;;7.05;6.35;;;;;;;30.25;46.12;98976.78;2079910;28;20095;-49
2023/07/11 03:21:59;;;;;;;6.10;5.07;;;;;;;30.24;46.31;98977.88;2080700;28;20460;-49
2023/07/11 03:23:00;;;;;;;7.70;5.85;;;;;;;30.27;46.22;98984.75;2081344;28;20574;-51
2023/07/11 03:24:01;;;;;;;5.97;5.03;;;;;;;30.25;46.32;98975.97;2081481;28;20294;-52
2023/07/11 03:25:04;;;;;;;7.80;5.55;;;;;;;30.25;46.16;98978.72;2078718;28;20050;-49
2023/07/11 03:26:06;;;;;;;7.93;5.68;;;;;;;30.25;46.30;98978.72;2078948;28;20084;-49
2023/07/11 03:27:07;;;;;;;8.68;5.60;;;;;;;30.23;46.40;98981.72;2081302;28;20044;-49
2023/07/11 03:28:09;;;;;;;7.05;5.03;;;;;;;30.24;46.51;98977.06;2079064;28;20087;-49
2023/07/11 03:29:09;;;;;;;6.60;5.45;;;;;;;30.24;46.40;98977.88;2080991;28;20076;-51
2023/07/11 03:30:11;;;;;;;7.32;5.70;;;;;;;30.25;46.44;98978.72;2078213;28;20049;-47
2023/07/11 03:31:12;;;;;;;6.93;6.22;;;;;;;30.24;46.46;98977.88;2080289;28;20083;-52
2023/07/11 03:32:14;;;;;;;7.25;5.15;;;;;;;30.24;46.24;98977.88;2079698;28;20168;-49
2023/07/11 03:33:15;;;;;;;8.88;5.60;;;;;;;30.22;45.99;98974.59;2082645;28;20592;-51
2023/07/11 03:34:16;;;;;;;8.82;5.63;;;;;;;30.24;46.24;98971.59;2077483;28;20086;-46
2023/07/11 03:35:18;;;;;;;7.00;4.78;;;;;;;30.22;46.35;98965.56;2081797;28;20036;-51
2023/07/11 03:36:20;;;;;;;6.25;4.95;;;;;;;30.24;46.06;98971.59;2079242;28;20480;-48
2023/07/11 03:37:21;;;;;;;6.82;4.75;;;;;;;30.22;46.70;98977.34;2078302;28;20462;-49
2023/07/11 03:38:23;;;;;;;7.20;6.07;;;;;;;30.22;46.54;98973.78;2078336;28;20081;-49
2023/07/11 03:39:24;;;;;;;6.05;4.63;;;;;;;30.24;46.19;98974.34;2080653;28;20048;-49
2023/07/11 03:40:29;;;;;;;6.70;4.80;;;;;;;30.23;46.06;98973.53;2079511;28;20239;-50
2023/07/11 03:41:30;;;;;;;6.47;5.13;;;;;;;30.22;46.46;98971.88;2080980;28;20144;-46
2023/07/11 03:42:31;;;;;;;6.55;5.30;;;;;;;30.22;46.42;98971.88;2080197;28;20103;-50
2023/07/11 03:43:32;;;;;;;7.68;5.45;;;;;;;30.22;46.37;98971.03;2079210;28;20408;-52
2023/07/11 03:44:34;;;;;;;6.53;5.47;;;;;;;30.21;46.36;98966.66;2081030;28;20111;-53
2023/07/11 03:45:35;;;;;;;7.30;5.32;;;;;;;30.22;46.69;98968.31;2078755;28;20572;-54
2023/07/11 03:46:37;;;;;;;6.13;4.90;;;;;;;30.22;46.25;98979.25;2078992;28;20045;-52
2023/07/11 03:47:37;;;;;;;6.70;5.32;;;;;;;30.22;46.16;98973.78;2079242;28;20592;-53
2023/07/11 03:48:39;;;;;;;5.30;4.28;;;;;;;30.22;46.61;98973.78;2079029;28;20045;-51
2023/07/11 03:49:40;;;;;;;6.78;5.32;;;;;;;30.22;46.43;98976.53;2077795;28;20057;-48
2023/07/11 03:50:42;;;;;;;6.63;4.60;;;;;;;30.21;46.18;98967.47;2078869;28;20053;-48
2023/07/11 03:51:42;;;;;;;6.72;4.93;;;;;;;30.21;46.55;98972.94;2080604;28;20078;-49
2023/07/11 03:52:44;;;;;;;6.60;5.45;;;;;;;30.21;46.54;98972.94;2081000;28;20453;-48
2023/07/11 03:53:46;;;;;;;7.35;5.60;;;;;;;30.21;46.55;98969.38;2078074;28;20090;-57
2023/07/11 03:54:47;;;;;;;6.00;5.18;;;;;;;30.21;46.35;98972.13;2081324;28;20063;-48
2023/07/11 03:55:50;;;;;;;8.13;5.07;;;;;;;30.21;46.41;98972.94;2076995;28;20065;-49
2023/07/11 03:56:52;;;;;;;7.55;5.82;;;;;;;30.20;46.58;98975.94;2081878;28;20056;-49
2023/07/11 03:57:53;;;;;;;7.10;5.28;;;;;;;30.20;46.49;98974.03;2078169;28;20052;-51
2023/07/11 03:58:54;;;;;;;7.10;4.90;;;;;;;30.20;46.39;98978.66;2079976;28;20056;-51
2023/07/11 03:59:55;;;;;;;7.28;5.07;;;;;;;30.21;46.73;98977.59;2075987;28;20049;-49
2023/07/11 04:00:57;;;;;;;8.95;5.88;;;;;;;30.20;46.69;98976.78;2080654;28;20538;-53
2023/07/11 04:01:58;;;;;;;5.57;4.90;;;;;;;30.19;46.60;98977.84;2079941;28;20089;-48
2023/07/11 04:02:59;;;;;;;6.60;5.18;;;;;;;30.19;46.64;98975.13;2079536;28;20242;-53
2023/07/11 04:04:00;;;;;;;7.57;5.80;;;;;;;30.18;46.76;98973.47;2077919;28;20053;-51
2023/07/11 04:05:01;;;;;;;7.65;5.60;;;;;;;30.19;46.79;98980.59;2081501;28;20490;-47
2023/07/11 04:06:02;;;;;;;7.25;4.78;;;;;;;30.19;46.86;98966.09;2079284;28;20099;-50
2023/07/11 04:07:04;;;;;;;6.50;5.13;;;;;;;30.19;46.69;98971.56;2080067;28;20048;-49
2023/07/11 04:08:06;;;;;;;6.32;5.35;;;;;;;30.18;46.80;98970.75;2076571;28;20049;-49
2023/07/11 04:09:06;;;;;;;5.95;5.28;;;;;;;30.18;46.78;98973.47;2079082;28;20103;-52
2023/07/11 04:10:12;;;;;;;8.60;5.55;;;;;;;30.18;46.85;98969.94;2078175;28;20045;-51
2023/07/11 04:11:14;;;;;;;6.95;6.07;;;;;;;30.18;46.71;98978.13;2081951;28;20076;-50
2023/07/11 04:12:15;;;;;;;6.60;5.25;;;;;;;30.18;46.85;98969.94;2079945;28;20049;-50
2023/07/11 04:13:16;;;;;;;7.38;5.60;;;;;;;30.17;46.73;98974.59;2078296;28;20104;-48
2023/07/11 04:14:17;;;;;;;6.45;4.88;;;;;;;30.18;46.69;98967.19;2078717;28;20053;-53
2023/07/11 04:15:19;;;;;;;6.53;5.30;;;;;;;30.16;46.67;98970.19;2079602;28;20064;-53
2023/07/11 04:16:20;;;;;;;6.38;4.93;;;;;;;30.18;46.93;98969.94;2080093;28;20110;-51
2023/07/11 04:17:22;;;;;;;7.93;5.38;;;;;;;30.17;47.01;98974.59;2080196;28;20239;-53
2023/07/11 04:18:23;;;;;;;7.75;5.15;;;;;;;30.17;46.45;98971.84;2078231;28;20049;-50
2023/07/11 04:19:25;;;;;;;8.02;5.38;;;;;;;30.17;46.87;98974.59;2078794;28;20041;-47
2023/07/11 04:20:26;;;;;;;6.10;5.47;;;;;;;30.18;46.54;98975.41;2079424;28;20548;-50
2023/07/11 04:21:27;;;;;;;7.63;5.70;;;;;;;30.17;46.36;98976.47;2078341;28;20048;-52
2023/07/11 04:22:29;;;;;;;7.57;5.30;;;;;;;30.16;46.63;98972.94;2080745;28;20052;-50
2023/07/11 04:23:30;;;;;;;7.68;5.60;;;;;;;30.17;46.71;98979.22;2078403;28;20511;-47
2023/07/11 04:24:31;;;;;;;6.85;5.05;;;;;;;30.16;46.78;98972.94;2080056;28;20057;-50
2023/07/11 04:25:32;;;;;;;7.15;5.30;;;;;;;30.17;46.71;98973.75;2078509;28;20053;-49
2023/07/11 04:26:35;;;;;;;8.52;5.22;;;;;;;30.18;46.45;98978.13;2079378;28;20053;-53
2023/07/11 04:27:36;;;;;;;6.72;5.13;;;;;;;30.16;46.86;98978.41;2079746;28;20052;-49
2023/07/11 04:28:37;;;;;;;6.18;5.22;;;;;;;30.17;46.55;98969.13;2079266;28;20110;-47
2023/07/11 04:29:38;;;;;;;6.25;5.13;;;;;;;30.17;46.61;98982.78;2078983;28;20117;-49
2023/07/11 04:30:40;;;;;;;6.22;4.90;;;;;;;30.17;46.57;98976.47;2079353;28;20053;-53
2023/07/11 04:31:41;;;;;;;7.72;5.38;;;;;;;30.16;46.56;98969.38;2078849;28;20507;-50
2023/07/11 04:32:42;;;;;;;6.00;5.00;;;;;;;30.16;46.52;98975.66;2077228;28;20049;-51
2023/07/11 04:33:43;;;;;;;6.03;4.90;;;;;;;30.16;46.51;98983.06;2078360;28;20083;-49
2023/07/11 04:34:45;;;;;;;7.68;5.80;;;;;;;30.16;46.51;98974.84;2077749;28;20632;-49
2023/07/11 04:35:45;;;;;;;6.28;5.43;;;;;;;30.15;46.78;98978.69;2079607;28;20120;-51
2023/07/11 04:36:47;;;;;;;7.18;5.00;;;;;;;30.16;46.73;98980.31;2079999;28;20048;-47
2023/07/11 04:37:48;;;;;;;5.68;5.05;;;;;;;30.16;46.88;98985.78;2079442;28;20130;-49
2023/07/11 04:38:50;;;;;;;5.97;4.97;;;;;;;30.15;46.91;98984.16;2077804;28;20690;-48
2023/07/11 04:39:51;;;;;;;7.00;4.85;;;;;;;30.15;46.56;98982.25;2075539;28;20060;-52
2023/07/11 04:40:51;;;;;;;4.88;4.20;;;;;;;30.15;46.81;98979.50;2074948;28;20052;-50
2023/07/11 04:41:54;;;;;;;7.00;5.20;;;;;;;30.15;46.46;98984.16;2079312;28;20049;-51
2023/07/11 04:42:58;;;;;;;7.63;5.07;;;;;;;30.15;46.39;98990.44;2081353;28;20072;-47
2023/07/11 04:44:00;;;;;;;7.55;5.38;;;;;;;30.14;46.54;98986.03;2079116;28;20147;-49
2023/07/11 04:45:00;;;;;;;7.38;5.45;;;;;;;30.15;46.71;98984.16;2078669;28;20097;-49
2023/07/11 04:46:03;;;;;;;5.63;4.70;;;;;;;30.14;46.59;98983.31;2077286;28;20103;-49
2023/07/11 04:47:06;;;;;;;6.97;5.55;;;;;;;30.14;46.46;98977.03;2080850;28;20052;-50
2023/07/11 04:48:08;;;;;;;6.65;5.15;;;;;;;30.13;46.65;98984.41;2079425;28;20079;-51
2023/07/11 04:49:08;;;;;;;6.03;5.00;;;;;;;30.14;46.51;98977.84;2078423;28;20049;-51
2023/07/11 04:50:10;;;;;;;6.75;4.82;;;;;;;30.15;46.81;98984.97;2077892;28;20470;-49
2023/07/11 04:51:11;;;;;;;6.60;5.35;;;;;;;30.13;46.71;98984.41;2078875;28;20102;-48